CheckWX is a tool to help pilots better visualize weather data.  It is not intended as a substitute for an official pre-flight weather briefing.

07:35:02 UTC

LIRV TAF
Viterbo Airport
Viterbo, Italy
TAF AMD LIRV 070643Z 0707/0715 VRB03KT 5000 BR BKN015 TEMPO 0707/0709 0800 FG SCT001 BKN010 BECMG 0709/0710 9999

Dec-7@
07:00 UTC

Dec-7 @ 07:00 UTC

Dec-7@
09:00 UTC

Dec-7 @ 09:00 UTC

TAF AMD LIRV 070643Z 0707/0715 VRB03KT 5000 BR BKN015
Wind
  • Variable at 3 KTS
Conditions
Mist
Cloud Levels
  • Broken at 1,500' AGL

Dec-7@
07:00 UTC

Dec-7 @ 07:00 UTC

Dec-7@
09:00 UTC

Dec-7 @ 09:00 UTC

TEMPO 0707/0709 0800 FG SCT001 BKN010

Temporary

Temporary Changes expected for less than half the time period

Conditions
Fog
Cloud Levels
  • Scattered at 100' AGL
  • Broken at 1,000' AGL

Dec-7@
09:00 UTC

Dec-7 @ 09:00 UTC

Dec-7@
15:00 UTC

Dec-7 @ 15:00 UTC

BECMG 0709/0710 9999

Becoming

Becoming Conditions expected by Sat, Dec 7, 2019 @ 10:00 UTC

Wind
  • Variable at 3 KTS
Conditions
Mist
Cloud Levels
  • Broken at 1,500' AGL